sensor_id;sensor_type;location;lat;lon;timestamp;temperature;humidity
11132;DHT22;5620;53.570;9.718;2022-08-07T11:25:50;29.70;1.00
11132;DHT22;5620;53.570;9.718;2022-08-07T11:28:34;32.40;1.00
11132;DHT22;5620;53.570;9.718;2022-08-07T11:31:09;32.50;1.00
11132;DHT22;5620;53.570;9.718;2022-08-07T11:42:14;31.50;1.00
11132;DHT22;5620;53.570;9.718;2022-08-07T11:45:45;34.20;1.00
11132;DHT22;5620;53.570;9.718;2022-08-07T11:50:43;32.30;1.00
11132;DHT22;5620;53.570;9.718;2022-08-07T12:02:35;28.70;1.00
11132;DHT22;5620;53.570;9.718;2022-08-07T12:05:28;28.70;1.00
11132;DHT22;5620;53.570;9.718;2022-08-07T12:08:04;28.60;1.00
11132;DHT22;5620;53.570;9.718;2022-08-07T12:11:00;28.70;1.00
11132;DHT22;5620;53.570;9.718;2022-08-07T12:13:27;28.60;1.00
11132;DHT22;5620;53.570;9.718;2022-08-07T12:15:56;28.70;1.00
11132;DHT22;5620;53.570;9.718;2022-08-07T12:23:58;33.20;1.00
11132;DHT22;5620;53.570;9.718;2022-08-07T12:26:42;35.30;1.00
11132;DHT22;5620;53.570;9.718;2022-08-07T12:29:20;37.10;1.00
11132;DHT22;5620;53.570;9.718;2022-08-07T12:31:56;38.10;1.00
11132;DHT22;5620;53.570;9.718;2022-08-07T12:34:23;38.20;1.00
11132;DHT22;5620;53.570;9.718;2022-08-07T12:36:51;37.10;1.00
11132;DHT22;5620;53.570;9.718;2022-08-07T12:39:19;36.60;1.00
11132;DHT22;5620;53.570;9.718;2022-08-07T12:41:45;35.90;1.00
11132;DHT22;5620;53.570;9.718;2022-08-07T12:44:12;35.50;1.00
11132;DHT22;5620;53.570;9.718;2022-08-07T12:49:20;35.80;1.00
11132;DHT22;5620;53.570;9.718;2022-08-07T12:52:12;36.60;1.00
11132;DHT22;5620;53.570;9.718;2022-08-07T12:54:41;37.30;1.00
11132;DHT22;5620;53.570;9.718;2022-08-07T12:57:08;39.10;1.00
11132;DHT22;5620;53.570;9.718;2022-08-07T12:59:35;40.40;99.90
11132;DHT22;5620;53.570;9.718;2022-08-07T13:05:02;39.10;1.00
11132;DHT22;5620;53.570;9.718;2022-08-07T13:20:42;37.10;1.00
11132;DHT22;5620;53.570;9.718;2022-08-07T13:23:24;39.10;1.00
11132;DHT22;5620;53.570;9.718;2022-08-07T13:26:00;39.40;1.00
11132;DHT22;5620;53.570;9.718;2022-08-07T13:28:38;41.00;99.90
11132;DHT22;5620;53.570;9.718;2022-08-07T13:34:02;42.40;99.90
11132;DHT22;5620;53.570;9.718;2022-08-07T13:36:49;43.40;99.90
11132;DHT22;5620;53.570;9.718;2022-08-07T13:39:27;44.10;99.90
11132;DHT22;5620;53.570;9.718;2022-08-07T13:41:53;46.00;99.90
11132;DHT22;5620;53.570;9.718;2022-08-07T13:44:22;46.00;99.90
11132;DHT22;5620;53.570;9.718;2022-08-07T13:46:49;45.40;99.90
11132;DHT22;5620;53.570;9.718;2022-08-07T13:49:19;43.60;99.90
11132;DHT22;5620;53.570;9.718;2022-08-07T13:51:46;41.10;99.90
11132;DHT22;5620;53.570;9.718;2022-08-07T13:54:13;39.30;1.00
11132;DHT22;5620;53.570;9.718;2022-08-07T13:56:41;39.10;1.00
11132;DHT22;5620;53.570;9.718;2022-08-07T13:59:11;39.10;1.00
11132;DHT22;5620;53.570;9.718;2022-08-07T14:01:44;39.20;1.00
11132;DHT22;5620;53.570;9.718;2022-08-07T14:04:14;37.80;1.00
11132;DHT22;5620;53.570;9.718;2022-08-07T14:06:45;36.20;1.00
11132;DHT22;5620;53.570;9.718;2022-08-07T14:09:26;35.00;1.00
11132;DHT22;5620;53.570;9.718;2022-08-07T14:11:55;34.50;1.00
11132;DHT22;5620;53.570;9.718;2022-08-07T14:14:27;34.00;1.00
11132;DHT22;5620;53.570;9.718;2022-08-07T14:16:54;33.90;1.00
11132;DHT22;5620;53.570;9.718;2022-08-07T14:22:00;34.00;1.00
11132;DHT22;5620;53.570;9.718;2022-08-07T14:24:28;33.60;1.00
11132;DHT22;5620;53.570;9.718;2022-08-07T14:26:59;32.90;1.00
11132;DHT22;5620;53.570;9.718;2022-08-07T14:29:31;32.70;1.00
11132;DHT22;5620;53.570;9.718;2022-08-07T14:32:03;35.70;1.00
11132;DHT22;5620;53.570;9.718;2022-08-07T14:34:31;39.00;1.00
11132;DHT22;5620;53.570;9.718;2022-08-07T14:37:02;39.50;1.00
11132;DHT22;5620;53.570;9.718;2022-08-07T14:39:35;38.30;1.00
11132;DHT22;5620;53.570;9.718;2022-08-07T14:42:01;36.60;1.00
11132;DHT22;5620;53.570;9.718;2022-08-07T14:44:28;35.10;1.00
11132;DHT22;5620;53.570;9.718;2022-08-07T14:46:59;34.00;1.00
11132;DHT22;5620;53.570;9.718;2022-08-07T14:49:31;33.40;1.00
11132;DHT22;5620;53.570;9.718;2022-08-07T14:51:58;33.20;1.00
11132;DHT22;5620;53.570;9.718;2022-08-07T14:54:28;33.10;1.00
11132;DHT22;5620;53.570;9.718;2022-08-07T14:56:55;34.80;1.00
11132;DHT22;5620;53.570;9.718;2022-08-07T14:59:22;36.10;1.00
11132;DHT22;5620;53.570;9.718;2022-08-07T15:01:50;35.90;1.00
11132;DHT22;5620;53.570;9.718;2022-08-07T15:04:16;35.30;1.00
11132;DHT22;5620;53.570;9.718;2022-08-07T15:06:43;34.60;1.00
11132;DHT22;5620;53.570;9.718;2022-08-07T15:09:13;35.00;1.00
11132;DHT22;5620;53.570;9.718;2022-08-07T15:11:55;35.40;1.00
11132;DHT22;5620;53.570;9.718;2022-08-07T15:14:23;37.00;1.00
11132;DHT22;5620;53.570;9.718;2022-08-07T15:19:38;42.00;99.90
11132;DHT22;5620;53.570;9.718;2022-08-07T15:22:12;44.50;99.90
11132;DHT22;5620;53.570;9.718;2022-08-07T15:24:39;46.40;99.90
11132;DHT22;5620;53.570;9.718;2022-08-07T15:29:39;49.10;99.90
11132;DHT22;5620;53.570;9.718;2022-08-07T15:32:06;49.80;99.90
11132;DHT22;5620;53.570;9.718;2022-08-07T15:34:53;50.80;99.90
11132;DHT22;5620;53.570;9.718;2022-08-07T15:37:30;51.00;99.90
11132;DHT22;5620;53.570;9.718;2022-08-07T15:39:58;49.50;99.90
11132;DHT22;5620;53.570;9.718;2022-08-07T15:44:59;45.90;99.90
11132;DHT22;5620;53.570;9.718;2022-08-07T15:47:27;42.00;99.90
11132;DHT22;5620;53.570;9.718;2022-08-07T15:49:57;39.60;1.00
11132;DHT22;5620;53.570;9.718;2022-08-07T15:52:24;38.80;1.00
11132;DHT22;5620;53.570;9.718;2022-08-07T15:54:51;38.60;1.00
11132;DHT22;5620;53.570;9.718;2022-08-07T15:57:23;39.90;1.00
11132;DHT22;5620;53.570;9.718;2022-08-07T15:59:52;42.60;99.90
11132;DHT22;5620;53.570;9.718;2022-08-07T16:02:30;43.30;99.90
11132;DHT22;5620;53.570;9.718;2022-08-07T16:05:14;44.80;99.90
11132;DHT22;5620;53.570;9.718;2022-08-07T16:07:57;46.10;99.90
11132;DHT22;5620;53.570;9.718;2022-08-07T16:10:27;47.00;99.90
11132;DHT22;5620;53.570;9.718;2022-08-07T16:15:44;46.20;99.90
11132;DHT22;5620;53.570;9.718;2022-08-07T16:21:02;46.60;99.90
11132;DHT22;5620;53.570;9.718;2022-08-07T16:29:08;43.00;99.90
11132;DHT22;5620;53.570;9.718;2022-08-07T16:45:29;46.00;99.90
11132;DHT22;5620;53.570;9.718;2022-08-07T16:48:35;43.90;99.90
11132;DHT22;5620;53.570;9.718;2022-08-07T16:54:07;38.30;1.00
11132;DHT22;5620;53.570;9.718;2022-08-07T16:59:16;33.30;1.00
11132;DHT22;5620;53.570;9.718;2022-08-07T17:26:27;40.70;1.00
11132;DHT22;5620;53.570;9.718;2022-08-07T17:29:03;40.80;1.00
11132;DHT22;5620;53.570;9.718;2022-08-07T17:31:38;40.50;1.00
11132;DHT22;5620;53.570;9.718;2022-08-07T17:34:11;37.20;1.00
11132;DHT22;5620;53.570;9.718;2022-08-07T17:36:41;34.00;1.00
11132;DHT22;5620;53.570;9.718;2022-08-07T17:39:39;31.90;1.00
11132;DHT22;5620;53.570;9.718;2022-08-07T17:42:14;30.30;1.00
11132;DHT22;5620;53.570;9.718;2022-08-07T17:44:50;29.00;1.00
11132;DHT22;5620;53.570;9.718;2022-08-07T17:47:35;28.00;1.00
11132;DHT22;5620;53.570;9.718;2022-08-07T17:53:02;26.20;1.00
11132;DHT22;5620;53.570;9.718;2022-08-07T17:55:37;25.50;1.00
11132;DHT22;5620;53.570;9.718;2022-08-07T17:58:14;24.90;1.00
11132;DHT22;5620;53.570;9.718;2022-08-07T18:00:46;24.40;1.00
11132;DHT22;5620;53.570;9.718;2022-08-07T18:03:19;24.00;1.00
11132;DHT22;5620;53.570;9.718;2022-08-07T18:06:21;23.80;1.00
11132;DHT22;5620;53.570;9.718;2022-08-07T18:08:49;23.60;1.00
11132;DHT22;5620;53.570;9.718;2022-08-07T18:11:48;23.50;1.00
11132;DHT22;5620;53.570;9.718;2022-08-07T18:14:40;23.40;1.00
11132;DHT22;5620;53.570;9.718;2022-08-07T18:20:13;23.20;1.00
11132;DHT22;5620;53.570;9.718;2022-08-07T18:22:51;23.00;1.00
11132;DHT22;5620;53.570;9.718;2022-08-07T18:25:29;22.90;1.00
11132;DHT22;5620;53.570;9.718;2022-08-07T18:41:32;21.90;1.00
11132;DHT22;5620;53.570;9.718;2022-08-07T18:47:26;21.60;1.00
11132;DHT22;5620;53.570;9.718;2022-08-07T18:55:32;21.00;1.00
11132;DHT22;5620;53.570;9.718;2022-08-07T19:00:50;20.70;1.00
11132;DHT22;5620;53.570;9.718;2022-08-07T19:03:57;20.50;1.00
11132;DHT22;5620;53.570;9.718;2022-08-07T19:06:29;20.30;1.00
11132;DHT22;5620;53.570;9.718;2022-08-07T19:09:08;20.10;1.00
11132;DHT22;5620;53.570;9.718;2022-08-07T19:11:45;19.90;1.00
11132;DHT22;5620;53.570;9.718;2022-08-07T19:14:15;19.70;1.00
11132;DHT22;5620;53.570;9.718;2022-08-07T19:16:59;19.60;1.00
11132;DHT22;5620;53.570;9.718;2022-08-07T19:19:34;19.40;1.00
11132;DHT22;5620;53.570;9.718;2022-08-07T19:24:50;19.10;1.00
11132;DHT22;5620;53.570;9.718;2022-08-07T19:27:20;18.90;1.00
11132;DHT22;5620;53.570;9.718;2022-08-07T19:29:50;18.80;1.00
11132;DHT22;5620;53.570;9.718;2022-08-07T19:32:17;18.70;1.00
11132;DHT22;5620;53.570;9.718;2022-08-07T19:34:52;18.60;1.00
11132;DHT22;5620;53.570;9.718;2022-08-07T19:37:19;18.50;1.00
11132;DHT22;5620;53.570;9.718;2022-08-07T19:39:50;18.40;1.00
11132;DHT22;5620;53.570;9.718;2022-08-07T19:42:17;18.30;1.00
11132;DHT22;5620;53.570;9.718;2022-08-07T19:44:44;18.20;1.00
11132;DHT22;5620;53.570;9.718;2022-08-07T19:47:15;18.10;1.00
11132;DHT22;5620;53.570;9.718;2022-08-07T19:49:46;18.00;1.00
11132;DHT22;5620;53.570;9.718;2022-08-07T19:52:14;18.00;1.00
11132;DHT22;5620;53.570;9.718;2022-08-07T19:54:44;17.90;1.00
11132;DHT22;5620;53.570;9.718;2022-08-07T19:57:15;17.90;1.00
11132;DHT22;5620;53.570;9.718;2022-08-07T19:59:42;17.80;1.00
11132;DHT22;5620;53.570;9.718;2022-08-07T20:02:13;17.70;1.00
11132;DHT22;5620;53.570;9.718;2022-08-07T20:04:41;17.70;1.00
11132;DHT22;5620;53.570;9.718;2022-08-07T20:07:09;17.60;1.00
11132;DHT22;5620;53.570;9.718;2022-08-07T20:09:47;17.60;1.00
11132;DHT22;5620;53.570;9.718;2022-08-07T20:12:14;17.50;1.00
11132;DHT22;5620;53.570;9.718;2022-08-07T20:14:46;17.50;1.00
11132;DHT22;5620;53.570;9.718;2022-08-07T20:17:14;17.40;1.00
11132;DHT22;5620;53.570;9.718;2022-08-07T20:19:41;17.30;1.00
11132;DHT22;5620;53.570;9.718;2022-08-07T20:22:14;17.30;1.00
11132;DHT22;5620;53.570;9.718;2022-08-07T20:24:46;17.20;1.00
11132;DHT22;5620;53.570;9.718;2022-08-07T20:27:14;17.10;1.00
11132;DHT22;5620;53.570;9.718;2022-08-07T20:29:48;17.10;1.00
11132;DHT22;5620;53.570;9.718;2022-08-07T20:32:36;17.00;1.00
11132;DHT22;5620;53.570;9.718;2022-08-07T20:35:14;16.90;1.00
11132;DHT22;5620;53.570;9.718;2022-08-07T20:37:45;16.90;1.00
11132;DHT22;5620;53.570;9.718;2022-08-07T20:40:14;16.80;1.00
11132;DHT22;5620;53.570;9.718;2022-08-07T20:42:44;16.80;1.00
11132;DHT22;5620;53.570;9.718;2022-08-07T20:45:12;16.70;1.00
11132;DHT22;5620;53.570;9.718;2022-08-07T20:47:39;16.70;1.00
11132;DHT22;5620;53.570;9.718;2022-08-07T20:50:08;16.60;1.00
11132;DHT22;5620;53.570;9.718;2022-08-07T20:52:35;16.50;1.00
11132;DHT22;5620;53.570;9.718;2022-08-07T20:55:01;16.50;1.00
11132;DHT22;5620;53.570;9.718;2022-08-07T20:57:28;16.40;1.00
11132;DHT22;5620;53.570;9.718;2022-08-07T21:00:00;16.40;1.00
11132;DHT22;5620;53.570;9.718;2022-08-07T21:02:27;16.30;1.00
11132;DHT22;5620;53.570;9.718;2022-08-07T21:04:53;16.20;1.00
11132;DHT22;5620;53.570;9.718;2022-08-07T21:07:19;16.20;9.40
11132;DHT22;5620;53.570;9.718;2022-08-07T21:09:45;16.10;19.70
11132;DHT22;5620;53.570;9.718;2022-08-07T21:12:10;16.00;30.80
11132;DHT22;5620;53.570;9.718;2022-08-07T21:14:39;16.00;46.30
11132;DHT22;5620;53.570;9.718;2022-08-07T21:17:09;15.90;61.80
11132;DHT22;5620;53.570;9.718;2022-08-07T21:19:35;15.90;73.90
11132;DHT22;5620;53.570;9.718;2022-08-07T21:22:04;15.90;86.60
11132;DHT22;5620;53.570;9.718;2022-08-07T21:27:25;15.80;99.90
11132;DHT22;5620;53.570;9.718;2022-08-07T21:33:08;15.80;99.90
11132;DHT22;5620;53.570;9.718;2022-08-07T21:35:44;15.70;99.90
11132;DHT22;5620;53.570;9.718;2022-08-07T21:41:23;15.60;99.90
11132;DHT22;5620;53.570;9.718;2022-08-07T21:44:22;15.60;99.90
11132;DHT22;5620;53.570;9.718;2022-08-07T21:47:11;15.60;99.90
11132;DHT22;5620;53.570;9.718;2022-08-07T21:49:57;15.60;99.90
11132;DHT22;5620;53.570;9.718;2022-08-07T21:52:30;15.50;99.90
11132;DHT22;5620;53.570;9.718;2022-08-07T21:55:26;15.50;99.90
11132;DHT22;5620;53.570;9.718;2022-08-07T21:58:08;15.40;99.90
11132;DHT22;5620;53.570;9.718;2022-08-07T22:00:35;15.40;99.90
11132;DHT22;5620;53.570;9.718;2022-08-07T22:03:31;15.40;99.90
11132;DHT22;5620;53.570;9.718;2022-08-07T22:06:18;15.40;99.90
11132;DHT22;5620;53.570;9.718;2022-08-07T22:08:52;15.30;99.90
11132;DHT22;5620;53.570;9.718;2022-08-07T22:11:20;15.30;99.90
11132;DHT22;5620;53.570;9.718;2022-08-07T22:13:50;15.30;99.90
11132;DHT22;5620;53.570;9.718;2022-08-07T22:21:41;15.10;99.90
11132;DHT22;5620;53.570;9.718;2022-08-07T22:24:18;15.10;99.90
11132;DHT22;5620;53.570;9.718;2022-08-07T22:27:01;15.10;99.90
11132;DHT22;5620;53.570;9.718;2022-08-07T22:29:57;15.00;99.90
11132;DHT22;5620;53.570;9.718;2022-08-07T22:32:38;15.00;99.90
11132;DHT22;5620;53.570;9.718;2022-08-07T22:35:09;14.90;99.90
11132;DHT22;5620;53.570;9.718;2022-08-07T22:37:54;14.90;99.90
11132;DHT22;5620;53.570;9.718;2022-08-07T22:42:56;14.80;99.90
11132;DHT22;5620;53.570;9.718;2022-08-07T22:45:39;14.80;1.00
11132;DHT22;5620;53.570;9.718;2022-08-07T22:56:17;14.60;1.00
11132;DHT22;5620;53.570;9.718;2022-08-07T23:02:12;14.60;1.00
11132;DHT22;5620;53.570;9.718;2022-08-07T23:07:55;14.50;1.00
11132;DHT22;5620;53.570;9.718;2022-08-07T23:10:35;14.50;1.00
11132;DHT22;5620;53.570;9.718;2022-08-07T23:18:46;14.40;1.00
11132;DHT22;5620;53.570;9.718;2022-08-07T23:21:22;14.40;1.00
11132;DHT22;5620;53.570;9.718;2022-08-07T23:30:03;14.30;1.00
11132;DHT22;5620;53.570;9.718;2022-08-07T23:35:23;14.20;1.00
11132;DHT22;5620;53.570;9.718;2022-08-07T23:51:48;14.00;1.00
11132;DHT22;5620;53.570;9.718;2022-08-07T23:54:36;14.10;6.60
